createdAt,value
2017-07-17T00:00:32.378Z,959.75
2017-07-17T00:01:32.241Z,959.75
2017-07-17T00:02:32.237Z,959.74
2017-07-17T00:03:32.235Z,959.75
2017-07-17T00:04:32.230Z,959.77
2017-07-17T00:05:32.358Z,959.79
2017-07-17T00:06:32.223Z,959.76
2017-07-17T00:07:32.238Z,959.75
2017-07-17T00:08:32.215Z,959.74
2017-07-17T00:09:32.214Z,959.77
2017-07-17T00:10:32.209Z,959.74
2017-07-17T00:11:32.204Z,959.79
2017-07-17T00:12:32.206Z,959.79
2017-07-17T00:13:32.204Z,959.77
2017-07-17T00:14:32.302Z,959.81
2017-07-17T00:15:32.191Z,959.79
2017-07-17T00:16:32.228Z,959.8
2017-07-17T00:17:32.462Z,959.82
2017-07-17T00:18:32.179Z,959.8
2017-07-17T00:19:32.175Z,959.8
2017-07-17T00:20:32.328Z,959.82
2017-07-17T00:21:32.169Z,959.81
2017-07-17T00:22:32.164Z,959.81
2017-07-17T00:23:32.160Z,959.82
2017-07-17T00:24:32.157Z,959.83
2017-07-17T00:25:32.281Z,959.81
2017-07-17T00:26:32.168Z,959.77
2017-07-17T00:27:32.144Z,959.74
2017-07-17T00:28:32.143Z,959.77
2017-07-17T00:29:32.138Z,959.73
2017-07-17T00:30:32.134Z,959.73
2017-07-17T00:31:32.131Z,959.72
2017-07-17T00:32:32.435Z,959.72
2017-07-17T00:33:32.151Z,959.73
2017-07-17T00:34:32.118Z,959.72
2017-07-17T00:35:32.235Z,959.72
2017-07-17T00:36:32.109Z,959.71
2017-07-17T00:37:32.105Z,959.7
2017-07-17T00:38:32.246Z,959.71
2017-07-17T00:39:32.098Z,959.71
2017-07-17T00:40:32.093Z,959.67
2017-07-17T00:41:32.090Z,959.71
2017-07-17T00:42:32.086Z,959.66
2017-07-17T00:43:32.208Z,959.67
2017-07-17T00:44:32.077Z,959.69
2017-07-17T00:45:32.073Z,959.67
2017-07-17T00:46:32.186Z,959.64
2017-07-17T00:47:32.065Z,959.63
2017-07-17T00:48:32.062Z,959.62
2017-07-17T00:49:32.187Z,959.63
2017-07-17T00:50:32.054Z,959.62
2017-07-17T00:51:32.048Z,959.6
2017-07-17T00:52:32.046Z,959.63
2017-07-17T00:53:32.082Z,959.64
2017-07-17T00:54:32.038Z,959.62
2017-07-17T00:55:32.033Z,959.66
2017-07-17T00:56:32.150Z,959.65
2017-07-17T00:57:32.026Z,959.68
2017-07-17T00:58:32.032Z,959.69
2017-07-17T00:59:32.017Z,959.66
2017-07-17T01:00:32.012Z,959.65
2017-07-17T01:01:32.016Z,959.63
2017-07-17T01:02:32.085Z,959.65
2017-07-17T01:03:32.012Z,959.63
2017-07-17T01:04:31.998Z,959.62
2017-07-17T01:05:32.010Z,959.65
2017-07-17T01:06:31.988Z,959.64
2017-07-17T01:07:32.087Z,959.59
2017-07-17T01:08:31.982Z,959.61
2017-07-17T01:09:31.977Z,959.62
2017-07-17T01:10:32.029Z,959.61
2017-07-17T01:11:31.969Z,959.59
2017-07-17T01:12:31.966Z,959.6
2017-07-17T01:13:31.961Z,959.56
2017-07-17T01:14:31.956Z,959.58
2017-07-17T01:15:31.953Z,959.55
2017-07-17T01:16:31.951Z,959.55
2017-07-17T01:17:31.946Z,959.54
2017-07-17T01:18:31.942Z,959.54
2017-07-17T01:19:31.937Z,959.53
2017-07-17T01:20:31.936Z,959.5
2017-07-17T01:21:31.929Z,959.41
2017-07-17T01:22:31.926Z,959.5
2017-07-17T01:23:31.922Z,959.39
2017-07-17T01:24:31.917Z,959.41
2017-07-17T01:25:31.914Z,959.44
2017-07-17T01:26:31.910Z,959.45
2017-07-17T01:27:31.905Z,959.44
2017-07-17T01:28:31.908Z,959.45
2017-07-17T01:29:31.899Z,959.43
2017-07-17T01:30:31.915Z,959.41
2017-07-17T01:31:31.890Z,959.39
2017-07-17T01:32:31.886Z,959.46
2017-07-17T01:33:31.883Z,959.39
2017-07-17T01:34:31.879Z,959.43
2017-07-17T01:35:31.875Z,959.49
2017-07-17T01:36:31.871Z,959.45
2017-07-17T01:37:31.867Z,959.41
2017-07-17T01:38:31.863Z,959.45
2017-07-17T01:39:31.859Z,959.46
2017-07-17T01:40:31.854Z,959.46
2017-07-17T01:41:31.852Z,959.44
2017-07-17T01:42:31.846Z,959.46
2017-07-17T01:43:31.843Z,959.44
2017-07-17T01:44:31.839Z,959.42
2017-07-17T01:45:31.834Z,959.48
2017-07-17T01:46:31.829Z,959.42
2017-07-17T01:47:31.826Z,959.43
2017-07-17T01:48:31.823Z,959.4
2017-07-17T01:49:31.820Z,959.41
2017-07-17T01:50:31.820Z,959.41
2017-07-17T01:51:31.872Z,959.41
2017-07-17T01:52:31.806Z,959.39
2017-07-17T01:53:31.809Z,959.43
2017-07-17T01:54:31.819Z,959.41
2017-07-17T01:55:31.794Z,959.4
2017-07-17T01:56:31.791Z,959.42
2017-07-17T01:57:31.785Z,959.42
2017-07-17T01:58:31.781Z,959.4
2017-07-17T01:59:31.778Z,959.43
2017-07-17T02:00:31.774Z,959.39
2017-07-17T02:01:31.772Z,959.46
2017-07-17T02:02:31.766Z,959.43
2017-07-17T02:03:31.763Z,959.44
2017-07-17T02:04:31.757Z,959.44
2017-07-17T02:05:31.755Z,959.43
2017-07-17T02:06:31.761Z,959.48
2017-07-17T02:07:31.747Z,959.49
2017-07-17T02:08:31.742Z,959.46
2017-07-17T02:09:31.738Z,959.47
2017-07-17T02:10:31.733Z,959.51
2017-07-17T02:11:31.729Z,959.5
2017-07-17T02:12:31.725Z,959.44
2017-07-17T02:13:31.763Z,959.51
2017-07-17T02:14:31.718Z,959.48
2017-07-17T02:15:31.712Z,959.5
2017-07-17T02:16:31.710Z,959.51
2017-07-17T02:17:31.706Z,959.5
2017-07-17T02:18:31.702Z,959.52
2017-07-17T02:19:31.702Z,959.51
2017-07-17T02:20:31.692Z,959.5
2017-07-17T02:21:31.689Z,959.55
2017-07-17T02:22:31.705Z,959.53
2017-07-17T02:23:31.683Z,959.53
2017-07-17T02:24:31.678Z,959.55
2017-07-17T02:25:31.674Z,959.56
2017-07-17T02:26:31.669Z,959.52
2017-07-17T02:27:31.677Z,959.55
2017-07-17T02:28:31.661Z,959.54
2017-07-17T02:29:31.657Z,959.53
2017-07-17T02:30:31.653Z,959.54
2017-07-17T02:31:31.667Z,959.5
2017-07-17T02:32:31.645Z,959.53
2017-07-17T02:33:31.648Z,959.52
2017-07-17T02:34:31.636Z,959.52
2017-07-17T02:35:31.632Z,959.53
2017-07-17T02:36:31.628Z,959.49
2017-07-17T02:37:31.635Z,959.46
2017-07-17T02:38:31.622Z,959.51
2017-07-17T02:39:31.620Z,959.48
2017-07-17T02:40:31.615Z,959.52
2017-07-17T02:41:31.609Z,959.53
2017-07-17T02:42:31.605Z,959.56
2017-07-17T02:43:31.603Z,959.54
2017-07-17T02:44:31.598Z,959.58
2017-07-17T02:45:31.595Z,959.55
2017-07-17T02:46:31.595Z,959.58
2017-07-17T02:47:31.586Z,959.57
2017-07-17T02:48:31.583Z,959.54
2017-07-17T02:49:31.579Z,959.56
2017-07-17T02:50:31.575Z,959.53
2017-07-17T02:51:31.572Z,959.55
2017-07-17T02:52:31.569Z,959.58
2017-07-17T02:53:31.574Z,959.55
2017-07-17T02:54:31.559Z,959.58
2017-07-17T02:55:31.556Z,959.57
2017-07-17T02:56:31.552Z,959.58
2017-07-17T02:57:31.549Z,959.61
2017-07-17T02:58:31.546Z,959.6
2017-07-17T02:59:31.542Z,959.65
2017-07-17T03:00:31.536Z,959.6
2017-07-17T03:01:31.533Z,959.6
2017-07-17T03:02:31.546Z,959.63
2017-07-17T03:03:31.526Z,959.64
2017-07-17T03:04:31.522Z,959.62
2017-07-17T03:05:31.518Z,959.64
2017-07-17T03:06:31.514Z,959.65
2017-07-17T03:07:31.509Z,959.63
2017-07-17T03:08:31.511Z,959.64
2017-07-17T03:09:31.504Z,959.63
2017-07-17T03:10:31.499Z,959.61
2017-07-17T03:11:31.496Z,959.6
2017-07-17T03:12:31.491Z,959.63
2017-07-17T03:13:31.488Z,959.63
2017-07-17T03:14:31.484Z,959.61
2017-07-17T03:15:31.534Z,959.62
2017-07-17T03:16:31.477Z,959.63
2017-07-17T03:17:31.473Z,959.61
2017-07-17T03:18:31.467Z,959.64
2017-07-17T03:19:31.465Z,959.63
2017-07-17T03:20:31.461Z,959.67
2017-07-17T03:21:31.457Z,959.68
2017-07-17T03:22:31.463Z,959.7
2017-07-17T03:23:31.451Z,959.69
2017-07-17T03:24:31.447Z,959.71
2017-07-17T03:25:31.443Z,959.71
2017-07-17T03:26:31.438Z,959.67
2017-07-17T03:27:31.436Z,959.66
2017-07-17T03:28:31.431Z,959.69
2017-07-17T03:29:31.428Z,959.67
2017-07-17T03:30:31.424Z,959.67
2017-07-17T03:31:31.418Z,959.65
2017-07-17T03:32:31.416Z,959.68
2017-07-17T03:33:31.428Z,959.69
2017-07-17T03:34:31.412Z,959.64
2017-07-17T03:35:31.407Z,959.67
2017-07-17T03:36:31.441Z,959.68
2017-07-17T03:37:31.399Z,959.66
2017-07-17T03:38:31.395Z,959.66
2017-07-17T03:39:31.391Z,959.66
2017-07-17T03:40:31.434Z,959.7
2017-07-17T03:41:31.383Z,959.69
2017-07-17T03:42:31.380Z,959.68
2017-07-17T03:43:31.375Z,959.67
2017-07-17T03:44:31.372Z,959.7
2017-07-17T03:45:31.369Z,959.68
2017-07-17T03:46:31.365Z,959.66
2017-07-17T03:47:31.361Z,959.67
2017-07-17T03:48:31.358Z,959.71
2017-07-17T03:49:31.356Z,959.68
2017-07-17T03:50:31.349Z,959.7
2017-07-17T03:51:31.346Z,959.66
2017-07-17T03:52:31.344Z,959.64
2017-07-17T03:53:31.339Z,959.7
2017-07-17T03:54:31.353Z,959.7
2017-07-17T03:55:31.331Z,959.66
2017-07-17T03:56:31.328Z,959.69
2017-07-17T03:57:31.324Z,959.69
2017-07-17T03:58:31.320Z,959.65
2017-07-17T03:59:31.317Z,959.68
2017-07-17T04:00:31.314Z,959.69
2017-07-17T04:01:31.330Z,959.7
2017-07-17T04:02:31.303Z,959.66
2017-07-17T04:03:31.303Z,959.61
2017-07-17T04:04:31.299Z,959.63
2017-07-17T04:05:31.295Z,959.66
2017-07-17T04:06:31.292Z,959.64
2017-07-17T04:07:31.289Z,959.63
2017-07-17T04:08:31.283Z,959.67
2017-07-17T04:09:31.281Z,959.64
2017-07-17T04:10:31.277Z,959.62
2017-07-17T04:11:31.275Z,959.64
2017-07-17T04:12:31.269Z,959.67
2017-07-17T04:13:31.267Z,959.6
2017-07-17T04:14:31.264Z,959.6
2017-07-17T04:15:31.260Z,959.63
2017-07-17T04:16:31.255Z,959.6
2017-07-17T04:17:31.255Z,959.57
2017-07-17T04:18:31.250Z,959.6
2017-07-17T04:19:31.244Z,959.6
2017-07-17T04:20:31.242Z,959.62
2017-07-17T04:21:31.239Z,959.62
2017-07-17T04:22:31.236Z,959.65
2017-07-17T04:23:31.231Z,959.65
2017-07-17T04:24:31.229Z,959.62
2017-07-17T04:25:31.225Z,959.63
2017-07-17T04:26:31.223Z,959.64
2017-07-17T04:27:31.218Z,959.64
2017-07-17T04:28:31.216Z,959.63
2017-07-17T04:29:31.212Z,959.58
2017-07-17T04:30:31.458Z,959.55
2017-07-17T04:31:31.204Z,959.6
2017-07-17T04:32:31.206Z,959.58
2017-07-17T04:33:31.203Z,959.57
2017-07-17T04:34:31.196Z,959.58
2017-07-17T04:35:31.192Z,959.62
2017-07-17T04:36:31.191Z,959.61
2017-07-17T04:37:31.193Z,959.6
2017-07-17T04:38:31.182Z,959.63
2017-07-17T04:39:31.180Z,959.61
2017-07-17T04:40:31.179Z,959.6
2017-07-17T04:41:31.173Z,959.57
2017-07-17T04:42:31.170Z,959.63
2017-07-17T04:43:31.167Z,959.6
2017-07-17T04:44:31.177Z,959.58
2017-07-17T04:45:31.161Z,959.57
2017-07-17T04:46:31.158Z,959.56
2017-07-17T04:47:31.165Z,959.59
2017-07-17T04:48:31.154Z,959.6
2017-07-17T04:49:31.150Z,959.59
2017-07-17T04:50:31.146Z,959.62
2017-07-17T04:51:31.145Z,959.63
2017-07-17T04:52:31.141Z,959.64
2017-07-17T04:53:31.141Z,959.65
2017-07-17T04:54:31.135Z,959.66
2017-07-17T04:55:31.141Z,959.65
2017-07-17T04:56:31.129Z,959.62
2017-07-17T04:57:31.126Z,959.67
2017-07-17T04:58:31.126Z,959.68
2017-07-17T04:59:31.149Z,959.59
2017-07-17T05:00:31.120Z,959.63
2017-07-17T05:01:31.118Z,959.61
2017-07-17T05:02:31.116Z,959.66
2017-07-17T05:03:31.112Z,959.67
2017-07-17T05:04:31.110Z,959.67
2017-07-17T05:05:31.109Z,959.71
2017-07-17T05:06:31.105Z,959.64
2017-07-17T05:07:31.101Z,959.66
2017-07-17T05:08:31.099Z,959.69
2017-07-17T05:09:31.098Z,959.69
2017-07-17T05:10:31.094Z,959.67
2017-07-17T05:11:31.106Z,959.71
2017-07-17T05:12:31.097Z,959.66
2017-07-17T05:13:31.090Z,959.72
2017-07-17T05:14:31.086Z,959.72
2017-07-17T05:15:31.084Z,959.75
2017-07-17T05:16:31.082Z,959.75
2017-07-17T05:17:31.082Z,959.72
2017-07-17T05:18:31.079Z,959.7
2017-07-17T05:19:31.077Z,959.71
2017-07-17T05:20:31.073Z,959.71
2017-07-17T05:21:31.071Z,959.74
2017-07-17T05:22:31.071Z,959.71
2017-07-17T05:23:31.068Z,959.71
2017-07-17T05:24:31.071Z,959.74
2017-07-17T05:25:31.063Z,959.76
2017-07-17T05:26:31.063Z,959.77
2017-07-17T05:27:31.084Z,959.79
2017-07-17T05:28:31.059Z,959.79
2017-07-17T05:29:31.057Z,959.77
2017-07-17T05:30:31.055Z,959.76
2017-07-17T05:31:31.055Z,959.8
2017-07-17T05:32:31.060Z,959.79
2017-07-17T05:33:31.084Z,959.76
2017-07-17T05:34:31.048Z,959.8
2017-07-17T05:35:31.046Z,959.77
2017-07-17T05:36:31.045Z,959.76
2017-07-17T05:37:31.043Z,959.76
2017-07-17T05:38:31.041Z,959.78
2017-07-17T05:39:31.041Z,959.74
2017-07-17T05:40:31.038Z,959.75
2017-07-17T05:41:31.036Z,959.75
2017-07-17T05:42:31.036Z,959.78
2017-07-17T05:43:31.033Z,959.77
2017-07-17T05:44:31.031Z,959.79
2017-07-17T05:45:31.030Z,959.81
2017-07-17T05:46:31.030Z,959.81
2017-07-17T05:47:31.045Z,959.83
2017-07-17T05:48:31.026Z,959.83
2017-07-17T05:49:31.023Z,959.87
2017-07-17T05:50:31.024Z,959.83
2017-07-17T05:51:31.035Z,959.84
2017-07-17T05:52:31.019Z,959.78
2017-07-17T05:53:31.017Z,959.84
2017-07-17T05:54:31.016Z,959.85
2017-07-17T05:55:31.013Z,959.83
2017-07-17T05:56:31.013Z,959.85
2017-07-17T05:57:31.011Z,959.84
2017-07-17T05:58:31.007Z,959.85
2017-07-17T05:59:31.008Z,959.86
2017-07-17T06:00:31.013Z,959.91
2017-07-17T06:01:31.005Z,959.88
2017-07-17T06:02:31.002Z,959.86
2017-07-17T06:03:31.005Z,959.89
2017-07-17T06:04:31.001Z,959.91
2017-07-17T06:05:31.018Z,959.93
2017-07-17T06:06:30.998Z,959.89
2017-07-17T06:07:30.996Z,959.88
2017-07-17T06:08:30.995Z,959.89
2017-07-17T06:09:30.992Z,959.95
2017-07-17T06:10:30.993Z,959.92
2017-07-17T06:11:30.992Z,959.91
2017-07-17T06:12:30.990Z,959.93
2017-07-17T06:13:30.989Z,959.93
2017-07-17T06:14:30.988Z,959.88
2017-07-17T06:15:30.985Z,959.9
2017-07-17T06:16:30.984Z,959.92
2017-07-17T06:17:30.982Z,959.92
2017-07-17T06:18:30.983Z,959.92
2017-07-17T06:19:30.995Z,959.92
2017-07-17T06:20:30.980Z,959.92
2017-07-17T06:21:30.979Z,959.91
2017-07-17T06:22:30.977Z,959.93
2017-07-17T06:23:30.977Z,959.96
2017-07-17T06:24:30.976Z,959.95
2017-07-17T06:25:30.978Z,959.96
2017-07-17T06:26:30.973Z,959.95
2017-07-17T06:27:30.971Z,959.96
2017-07-17T06:28:30.971Z,959.95
2017-07-17T06:29:30.969Z,959.92
2017-07-17T06:30:30.969Z,959.94
2017-07-17T06:31:31.015Z,959.93
2017-07-17T06:32:30.964Z,959.97
2017-07-17T06:33:30.963Z,959.94
2017-07-17T06:34:30.980Z,959.93
2017-07-17T06:35:30.959Z,959.93
2017-07-17T06:36:30.974Z,959.95
2017-07-17T06:37:30.959Z,959.98
2017-07-17T06:38:30.955Z,959.98
2017-07-17T06:39:30.953Z,960.02
2017-07-17T06:40:30.952Z,960.02
2017-07-17T06:41:30.963Z,960.02
2017-07-17T06:42:30.948Z,959.99
2017-07-17T06:43:30.947Z,959.99
2017-07-17T06:44:30.946Z,960.02
2017-07-17T06:45:30.944Z,960.03
2017-07-17T06:46:30.943Z,960.04
2017-07-17T06:47:30.943Z,960
2017-07-17T06:48:30.989Z,960.03
2017-07-17T06:49:30.937Z,960.05
2017-07-17T06:50:30.938Z,960
2017-07-17T06:51:30.937Z,960.02
2017-07-17T06:52:30.950Z,960
2017-07-17T06:53:30.933Z,960.01
2017-07-17T06:54:30.933Z,960.02
2017-07-17T06:55:30.945Z,959.98
2017-07-17T06:56:30.930Z,960.02
2017-07-17T06:57:30.928Z,959.95
2017-07-17T06:58:30.956Z,959.96
2017-07-17T06:59:30.925Z,959.98
2017-07-17T07:00:30.924Z,959.97
2017-07-17T07:01:30.923Z,959.94
2017-07-17T07:02:30.921Z,959.95
2017-07-17T07:03:30.951Z,959.94
2017-07-17T07:04:30.917Z,960
2017-07-17T07:05:30.945Z,960.01
2017-07-17T07:06:30.914Z,960
2017-07-17T07:07:30.913Z,960.03
2017-07-17T07:08:30.910Z,960.01
2017-07-17T07:09:30.910Z,960.01
2017-07-17T07:10:30.909Z,960.01
2017-07-17T07:11:30.909Z,960.02
2017-07-17T07:12:30.904Z,959.99
2017-07-17T07:13:30.918Z,959.98
2017-07-17T07:14:30.901Z,959.99
2017-07-17T07:15:30.919Z,959.94
2017-07-17T07:16:30.896Z,959.95
2017-07-17T07:17:30.896Z,959.93
2017-07-17T07:18:30.893Z,959.96
2017-07-17T07:19:30.892Z,959.96
2017-07-17T07:20:30.898Z,959.98
2017-07-17T07:21:30.890Z,959.98
2017-07-17T07:22:30.886Z,959.96
2017-07-17T07:23:30.885Z,959.98
2017-07-17T07:24:30.885Z,960.04
2017-07-17T07:25:30.883Z,959.96
2017-07-17T07:26:30.880Z,959.98
2017-07-17T07:27:30.879Z,960
2017-07-17T07:28:30.878Z,960.03
2017-07-17T07:29:30.877Z,960.01
2017-07-17T07:30:30.875Z,960
2017-07-17T07:31:30.874Z,960.01
2017-07-17T07:32:30.876Z,960.04
2017-07-17T07:33:30.872Z,960.03
2017-07-17T07:34:30.873Z,960.04
2017-07-17T07:35:30.872Z,960.02
2017-07-17T07:36:30.912Z,960.06
2017-07-17T07:37:30.870Z,960.06
2017-07-17T07:38:30.870Z,960.07
2017-07-17T07:39:37.135Z,960.02
2017-07-17T07:40:30.866Z,960.08
2017-07-17T07:41:30.882Z,960.06
2017-07-17T07:42:30.871Z,960.08
2017-07-17T07:43:30.869Z,960.04
2017-07-17T07:44:30.864Z,960.1
2017-07-17T07:45:30.865Z,960.08
2017-07-17T07:46:30.866Z,960.06
2017-07-17T07:47:30.866Z,960.06
2017-07-17T07:48:30.868Z,960.04
2017-07-17T07:49:30.865Z,960.04
2017-07-17T07:50:30.865Z,960.02
2017-07-17T07:51:30.863Z,960.03
2017-07-17T07:52:30.864Z,960.01
2017-07-17T07:53:30.863Z,960
2017-07-17T07:54:30.864Z,960.05
2017-07-17T07:55:30.887Z,959.99
2017-07-17T07:56:30.864Z,959.98
2017-07-17T07:57:30.863Z,959.97
2017-07-17T07:58:30.864Z,959.93
2017-07-17T07:59:30.865Z,959.95
2017-07-17T08:00:30.864Z,959.98
2017-07-17T08:01:30.867Z,959.96
2017-07-17T08:02:30.865Z,959.95
2017-07-17T08:03:30.867Z,960
2017-07-17T08:04:30.866Z,960.03
2017-07-17T08:05:30.865Z,959.98
2017-07-17T08:06:30.865Z,960
2017-07-17T08:07:30.866Z,960.01
2017-07-17T08:08:30.873Z,960.03
2017-07-17T08:09:30.866Z,960.02
2017-07-17T08:10:30.865Z,959.97
2017-07-17T08:11:30.866Z,960.04
2017-07-17T08:12:30.867Z,960.03
2017-07-17T08:13:30.866Z,960.04
2017-07-17T08:14:30.866Z,960.01
2017-07-17T08:15:30.867Z,960.05
2017-07-17T08:16:30.878Z,960.03
2017-07-17T08:17:30.881Z,960.08
2017-07-17T08:18:30.867Z,960.04
2017-07-17T08:19:30.868Z,960.03
2017-07-17T08:20:30.869Z,960.07
2017-07-17T08:21:30.869Z,960.07
2017-07-17T08:22:30.869Z,960.04
2017-07-17T08:23:30.871Z,960.06
2017-07-17T08:24:30.872Z,960.08
2017-07-17T08:25:30.872Z,960.07
2017-07-17T08:26:30.886Z,960.08
2017-07-17T08:27:30.874Z,960.11
2017-07-17T08:28:30.873Z,960.06
2017-07-17T08:29:30.873Z,960.07
2017-07-17T08:30:30.874Z,960.06
2017-07-17T08:31:30.882Z,960.06
2017-07-17T08:32:30.877Z,960.06
2017-07-17T08:33:30.876Z,960.09
2017-07-17T08:34:30.878Z,960.09
2017-07-17T08:35:30.877Z,960.07
2017-07-17T08:36:30.879Z,960.1
2017-07-17T08:37:30.881Z,960.11
2017-07-17T08:38:30.880Z,960.1
2017-07-17T08:39:30.881Z,960.09
2017-07-17T08:40:30.882Z,960.06
2017-07-17T08:41:30.883Z,960.12
2017-07-17T08:42:30.884Z,960.12
2017-07-17T08:43:30.886Z,960.13
2017-07-17T08:44:30.886Z,960.16
2017-07-17T08:45:30.897Z,960.14
2017-07-17T08:46:30.886Z,960.12
2017-07-17T08:47:30.887Z,960.11
2017-07-17T08:48:30.910Z,960.15
2017-07-17T08:49:30.889Z,960.13
2017-07-17T08:50:30.891Z,960.12
2017-07-17T08:51:30.892Z,960.13
2017-07-17T08:52:30.893Z,960.14
2017-07-17T08:53:30.892Z,960.1
2017-07-17T08:54:30.894Z,960.13
2017-07-17T08:55:30.894Z,960.17
2017-07-17T08:56:30.894Z,960.17
2017-07-17T08:57:30.894Z,960.19
2017-07-17T08:58:30.896Z,960.18
2017-07-17T08:59:30.895Z,960.16
2017-07-17T09:00:30.897Z,960.19
2017-07-17T09:01:30.904Z,960.15
2017-07-17T09:02:30.898Z,960.13
2017-07-17T09:03:30.900Z,960.11
2017-07-17T09:04:30.899Z,960.09
2017-07-17T09:05:30.901Z,960.12
2017-07-17T09:06:30.903Z,960.11
2017-07-17T09:07:30.902Z,960.12
2017-07-17T09:08:30.903Z,960.08
2017-07-17T09:09:30.905Z,960.1
2017-07-17T09:10:30.913Z,960.07
2017-07-17T09:11:30.907Z,960.08
2017-07-17T09:12:30.920Z,960.02
2017-07-17T09:13:30.911Z,960.04
2017-07-17T09:14:30.925Z,960.04
2017-07-17T09:15:30.911Z,960.04
2017-07-17T09:16:30.912Z,960.04
2017-07-17T09:17:30.913Z,960.02
2017-07-17T09:18:30.914Z,960.05
2017-07-17T09:19:30.914Z,960.06
2017-07-17T09:20:30.916Z,960.07
2017-07-17T09:21:30.916Z,960.07
2017-07-17T09:22:30.916Z,960.05
2017-07-17T09:23:30.931Z,960.06
2017-07-17T09:24:30.919Z,960.06
2017-07-17T09:25:30.920Z,960.02
2017-07-17T09:26:30.923Z,960.03
2017-07-17T09:27:30.921Z,959.98
2017-07-17T09:28:30.921Z,960.02
2017-07-17T09:29:30.923Z,960.02
2017-07-17T09:30:30.923Z,960.02
2017-07-17T09:31:30.923Z,960.03
2017-07-17T09:32:30.928Z,960.05
2017-07-17T09:33:30.925Z,960.04
2017-07-17T09:34:30.925Z,960.06
2017-07-17T09:35:30.926Z,960.04
2017-07-17T09:36:30.927Z,960.02
2017-07-17T09:37:30.926Z,960
2017-07-17T09:38:30.927Z,960
2017-07-17T09:39:30.928Z,960.01
2017-07-17T09:40:30.928Z,960.05
2017-07-17T09:41:30.929Z,959.97
2017-07-17T09:42:30.928Z,960.02
2017-07-17T09:43:30.930Z,959.99
2017-07-17T09:44:30.931Z,960.05
2017-07-17T09:45:30.929Z,960.02
2017-07-17T09:46:30.931Z,960.02
2017-07-17T09:47:30.933Z,960.04
2017-07-17T09:48:30.933Z,960.04
2017-07-17T09:49:30.938Z,960.02
2017-07-17T09:50:30.933Z,960.02
2017-07-17T09:51:30.934Z,960
2017-07-17T09:52:30.932Z,959.96
2017-07-17T09:53:30.933Z,959.98
2017-07-17T09:54:30.937Z,960
2017-07-17T09:55:30.937Z,959.99
2017-07-17T09:56:30.940Z,959.97
2017-07-17T09:57:30.939Z,959.92
2017-07-17T09:58:30.942Z,959.87
2017-07-17T09:59:30.942Z,959.86
2017-07-17T10:00:30.964Z,959.84
2017-07-17T10:01:30.946Z,959.86
2017-07-17T10:02:30.948Z,959.84
2017-07-17T10:03:30.951Z,959.88
2017-07-17T10:04:30.949Z,959.87
2017-07-17T10:05:30.952Z,959.84
2017-07-17T10:06:30.954Z,959.86
2017-07-17T10:07:30.954Z,959.84
2017-07-17T10:08:30.956Z,959.83
2017-07-17T10:09:30.959Z,959.87
2017-07-17T10:10:30.959Z,959.85
2017-07-17T10:11:30.961Z,959.88
2017-07-17T10:12:30.963Z,959.87
2017-07-17T10:13:30.964Z,959.86
2017-07-17T10:14:30.977Z,959.87
2017-07-17T10:15:30.985Z,959.86
2017-07-17T10:16:30.969Z,959.86
2017-07-17T10:17:30.969Z,959.85
2017-07-17T10:18:30.970Z,959.85
2017-07-17T10:19:30.971Z,959.84
2017-07-17T10:20:30.976Z,959.81
2017-07-17T10:21:30.973Z,959.8
2017-07-17T10:22:30.974Z,959.79
2017-07-17T10:23:30.975Z,959.78
2017-07-17T10:24:30.977Z,959.8
2017-07-17T10:25:30.976Z,959.81
2017-07-17T10:26:30.978Z,959.82
2017-07-17T10:27:30.979Z,959.84
2017-07-17T10:28:30.978Z,959.85
2017-07-17T10:29:30.981Z,959.86
2017-07-17T10:30:30.983Z,959.81
2017-07-17T10:31:30.988Z,959.8
2017-07-17T10:32:30.983Z,959.87
2017-07-17T10:33:30.985Z,959.84
2017-07-17T10:34:30.987Z,959.83
2017-07-17T10:35:30.989Z,959.84
2017-07-17T10:36:30.990Z,959.83
2017-07-17T10:37:30.989Z,959.81
2017-07-17T10:38:30.993Z,959.79
2017-07-17T10:39:30.993Z,959.74
2017-07-17T10:40:30.994Z,959.78
2017-07-17T10:41:30.997Z,959.77
2017-07-17T10:42:31.000Z,959.75
2017-07-17T10:43:31.001Z,959.78
2017-07-17T10:44:31.004Z,959.75
2017-07-17T10:45:31.005Z,959.78
2017-07-17T10:46:31.007Z,959.81
2017-07-17T10:47:31.010Z,959.8
2017-07-17T10:48:31.015Z,959.78
2017-07-17T10:49:31.015Z,959.69
2017-07-17T10:50:31.016Z,959.67
2017-07-17T10:51:31.021Z,959.69
2017-07-17T10:52:31.023Z,959.68
2017-07-17T10:53:31.026Z,959.71
2017-07-17T10:54:31.027Z,959.68
2017-07-17T10:55:31.032Z,959.7
2017-07-17T10:56:31.034Z,959.67
2017-07-17T10:57:31.040Z,959.66
2017-07-17T10:58:31.042Z,959.68
2017-07-17T10:59:31.044Z,959.62
2017-07-17T11:00:31.049Z,959.63
2017-07-17T11:01:31.051Z,959.64
2017-07-17T11:02:31.078Z,959.59
2017-07-17T11:03:31.059Z,959.63
2017-07-17T11:04:31.063Z,959.62
2017-07-17T11:05:31.080Z,959.67
2017-07-17T11:06:31.070Z,959.67
2017-07-17T11:07:31.075Z,959.65
2017-07-17T11:08:31.079Z,959.64
2017-07-17T11:09:31.082Z,959.65
2017-07-17T11:10:31.087Z,959.66
2017-07-17T11:11:31.091Z,959.69
2017-07-17T11:12:31.093Z,959.71
2017-07-17T11:13:31.098Z,959.72
2017-07-17T11:14:31.102Z,959.74
2017-07-17T11:15:31.107Z,959.74
2017-07-17T11:16:31.113Z,959.77
2017-07-17T11:17:31.114Z,959.76
2017-07-17T11:18:31.118Z,959.77
2017-07-17T11:19:31.121Z,959.78
2017-07-17T11:20:31.125Z,959.76
2017-07-17T11:21:31.129Z,959.78
2017-07-17T11:22:31.135Z,959.81
2017-07-17T11:23:31.137Z,959.79
2017-07-17T11:24:31.140Z,959.75
2017-07-17T11:25:31.145Z,959.73
2017-07-17T11:26:31.150Z,959.72
2017-07-17T11:27:31.153Z,959.68
2017-07-17T11:28:31.156Z,959.71
2017-07-17T11:29:31.159Z,959.71
2017-07-17T11:30:31.163Z,959.7
2017-07-17T11:31:31.169Z,959.72
2017-07-17T11:32:31.171Z,959.7
2017-07-17T11:33:31.176Z,959.67
2017-07-17T11:34:31.177Z,959.68
2017-07-17T11:35:31.181Z,959.7
2017-07-17T11:36:31.185Z,959.65
2017-07-17T11:37:31.189Z,959.66
2017-07-17T11:38:31.191Z,959.74
2017-07-17T11:39:31.197Z,959.66
2017-07-17T11:40:31.199Z,959.6
2017-07-17T11:41:31.208Z,959.67
2017-07-17T11:42:31.205Z,959.64
2017-07-17T11:43:31.209Z,959.67
2017-07-17T11:44:31.213Z,959.65
2017-07-17T11:45:31.214Z,959.68
2017-07-17T11:56:58.556Z,959.6
2017-07-17T11:58:58.580Z,959.61
2017-07-17T11:59:58.564Z,959.61
2017-07-17T12:00:58.567Z,959.6
2017-07-17T12:01:58.571Z,959.62
2017-07-17T12:02:58.572Z,959.58
2017-07-17T12:03:58.575Z,959.55
2017-07-17T12:05:58.581Z,959.56
2017-07-17T12:06:58.583Z,959.56
2017-07-17T12:07:58.585Z,959.57
2017-07-17T12:08:58.594Z,959.56
2017-07-17T12:09:58.591Z,959.57
2017-07-17T12:10:58.593Z,959.58
2017-07-17T12:11:58.595Z,959.57
2017-07-17T12:12:58.599Z,959.54
2017-07-17T12:13:58.602Z,959.49
2017-07-17T12:14:58.604Z,959.49
2017-07-17T12:15:58.609Z,959.52
2017-07-17T12:16:58.610Z,959.54
2017-07-17T12:17:58.614Z,959.54
2017-07-17T12:18:58.615Z,959.52
2017-07-17T12:19:58.619Z,959.52
2017-07-17T12:20:58.622Z,959.5
2017-07-17T12:21:58.624Z,959.46
2017-07-17T12:22:58.627Z,959.49
2017-07-17T12:23:58.632Z,959.5
2017-07-17T12:24:58.634Z,959.5
2017-07-17T12:25:58.637Z,959.5
2017-07-17T12:26:58.641Z,959.53
2017-07-17T12:27:58.643Z,959.52
2017-07-17T12:28:58.647Z,959.51
2017-07-17T12:29:58.650Z,959.46
2017-07-17T12:30:58.671Z,959.5
2017-07-17T12:31:58.659Z,959.5
2017-07-17T12:32:58.660Z,959.49
2017-07-17T12:33:58.664Z,959.51
2017-07-17T12:34:58.667Z,959.48
2017-07-17T12:35:58.671Z,959.51
2017-07-17T12:36:58.675Z,959.49
2017-07-17T12:37:58.677Z,959.49
2017-07-17T12:38:58.681Z,959.45
2017-07-17T12:39:58.683Z,959.48
2017-07-17T12:40:58.686Z,959.49
2017-07-17T12:41:58.694Z,959.48
2017-07-17T12:42:58.694Z,959.49
2017-07-17T12:43:58.695Z,959.51